createdAt,value
2023-01-01T00:04:18.717Z,36.72
2023-01-01T00:10:00.037Z,31.92
2023-01-01T00:15:25.193Z,30.33
2023-01-01T00:20:48.941Z,31.80
2023-01-01T00:26:13.729Z,27.60
2023-01-01T00:31:38.999Z,27.35
2023-01-01T00:37:02.751Z,29.27
2023-01-01T00:42:26.756Z,34.10
2023-01-01T00:47:54.372Z,35.00
2023-01-01T00:53:18.627Z,37.95
2023-01-01T00:58:42.439Z,33.90
2023-01-01T01:04:09.093Z,30.40
2023-01-01T01:09:33.028Z,26.45
2023-01-01T01:14:56.819Z,36.63
2023-01-01T01:20:22.176Z,37.55
2023-01-01T01:25:46.711Z,34.08
2023-01-01T01:31:11.284Z,29.65
2023-01-01T01:36:36.475Z,30.17
2023-01-01T01:42:02.393Z,26.85
2023-01-01T01:47:32.288Z,27.90
2023-01-01T01:53:10.308Z,35.40
2023-01-01T01:58:35.123Z,38.55
2023-01-01T02:04:00.553Z,47.63
2023-01-01T02:09:25.784Z,44.00
2023-01-01T02:14:49.630Z,44.50
2023-01-01T02:20:26.124Z,42.83
2023-01-01T02:26:09.068Z,37.00
2023-01-01T02:31:38.946Z,33.38
2023-01-01T02:37:05.481Z,32.72
2023-01-01T02:42:31.056Z,36.30
2023-01-01T02:47:56.229Z,32.90
2023-01-01T02:53:30.413Z,30.67
2023-01-01T02:59:23.878Z,27.65
2023-01-01T03:05:07.416Z,29.10
2023-01-01T03:10:40.426Z,26.33
2023-01-01T03:16:10.051Z,25.75
2023-01-01T03:21:35.724Z,31.55
2023-01-01T03:27:03.275Z,31.92
2023-01-01T03:32:46.975Z,32.70
2023-01-01T03:38:18.061Z,33.53
2023-01-01T03:43:49.396Z,31.03
2023-01-01T03:49:14.297Z,33.85
2023-01-01T03:54:46.023Z,36.83
2023-01-01T04:00:16.304Z,34.25
2023-01-01T04:05:43.716Z,33.97
2023-01-01T04:11:28.949Z,45.05
2023-01-01T04:16:52.799Z,49.40
2023-01-01T04:22:17.235Z,43.28
2023-01-01T04:27:42.849Z,41.45
2023-01-01T04:33:06.566Z,42.60
2023-01-01T04:38:30.354Z,39.88
2023-01-01T04:43:55.577Z,40.58
2023-01-01T04:49:19.367Z,45.63
2023-01-01T04:54:43.100Z,42.25
2023-01-01T05:00:09.839Z,43.17
2023-01-01T05:05:33.586Z,39.95
2023-01-01T05:11:01.482Z,42.88
2023-01-01T05:16:29.284Z,44.08
2023-01-01T05:21:54.101Z,45.95
2023-01-01T05:27:17.877Z,50.75
2023-01-01T05:32:43.023Z,52.08
2023-01-01T05:38:06.781Z,57.72
2023-01-01T05:43:30.862Z,50.33
2023-01-01T05:48:56.506Z,40.10
2023-01-01T05:54:20.379Z,37.90
2023-01-01T05:59:44.348Z,43.30
2023-01-01T06:05:10.391Z,46.30
2023-01-01T06:10:34.163Z,44.75
2023-01-01T06:15:59.083Z,44.00
2023-01-01T06:21:25.971Z,48.42
2023-01-01T06:26:49.835Z,54.45
2023-01-01T06:32:13.690Z,48.40
2023-01-01T06:37:39.061Z,51.33
2023-01-01T06:43:02.847Z,61.50
2023-01-01T06:48:26.656Z,61.33
2023-01-01T06:53:52.657Z,57.08
2023-01-01T06:59:17.471Z,55.30
2023-01-01T07:04:41.656Z,56.85
2023-01-01T07:10:07.738Z,52.75
2023-01-01T07:15:31.660Z,52.35
2023-01-01T07:20:57.294Z,53.85
2023-01-01T07:26:22.463Z,53.65
2023-01-01T07:31:46.645Z,53.60
2023-01-01T07:37:10.505Z,52.78
2023-01-01T07:42:35.711Z,53.03
2023-01-01T07:48:00.778Z,54.42
2023-01-01T07:53:24.547Z,49.85
2023-01-01T07:58:49.763Z,51.50
2023-01-01T08:04:13.640Z,51.60
2023-01-01T08:09:37.472Z,50.88
2023-01-01T08:15:02.685Z,48.20
2023-01-01T08:20:26.854Z,47.75
2023-01-01T08:25:50.708Z,47.35
2023-01-01T08:31:16.100Z,48.25
2023-01-01T08:36:41.127Z,47.50
2023-01-01T08:42:10.270Z,46.15
2023-01-01T08:47:37.500Z,46.92
2023-01-01T08:53:01.547Z,46.90
2023-01-01T08:58:25.292Z,46.78
2023-01-01T09:03:50.795Z,45.15
2023-01-01T09:09:14.817Z,47.00
2023-01-01T09:14:38.584Z,45.00
2023-01-01T09:20:03.794Z,42.90
2023-01-01T09:25:27.793Z,41.75
2023-01-01T09:30:51.599Z,41.58
2023-01-01T09:36:28.887Z,41.05
2023-01-01T09:42:06.119Z,37.10
2023-01-01T09:47:34.842Z,35.30
2023-01-01T09:53:05.020Z,33.20
2023-01-01T09:58:31.537Z,33.17
2023-01-01T10:04:03.181Z,32.97
2023-01-01T10:15:03.176Z,32.13
2023-01-01T10:20:31.734Z,34.08
2023-01-01T10:25:59.400Z,34.50
2023-01-01T10:31:30.419Z,33.05
2023-01-01T10:36:56.118Z,31.25
2023-01-01T10:42:21.340Z,33.97
2023-01-01T10:48:10.228Z,26.63
2023-01-01T10:53:37.942Z,26.92
2023-01-01T10:59:03.343Z,25.25
2023-01-01T11:04:27.198Z,27.83
2023-01-01T11:10:02.529Z,27.60
2023-01-01T11:15:38.205Z,25.92
2023-01-01T11:21:02.329Z,23.70
2023-01-01T11:26:27.010Z,20.77
2023-01-01T11:31:53.632Z,19.35
2023-01-01T11:37:24.619Z,18.58
2023-01-01T11:42:58.092Z,19.20
2023-01-01T11:48:29.068Z,20.27
2023-01-01T11:53:52.946Z,19.43
2023-01-01T11:59:19.378Z,19.05
2023-01-01T12:04:50.441Z,19.33
2023-01-01T12:10:20.608Z,20.17
2023-01-01T12:15:51.400Z,20.25
2023-01-01T12:21:25.440Z,20.98
2023-01-01T12:27:10.819Z,20.27
2023-01-01T12:32:51.723Z,20.77
2023-01-01T12:38:34.773Z,22.20
2023-01-01T12:44:06.061Z,21.08
2023-01-01T12:49:42.890Z,19.95
2023-01-01T12:55:40.958Z,20.33
2023-01-01T13:01:10.090Z,19.13
2023-01-01T13:06:40.911Z,18.95
2023-01-01T13:12:09.320Z,17.73
2023-01-01T13:17:33.355Z,17.77
2023-01-01T13:22:57.233Z,17.08
2023-01-01T13:28:22.436Z,17.95
2023-01-01T13:33:46.360Z,18.02
2023-01-01T13:39:10.141Z,15.60
2023-01-01T13:44:35.267Z,17.55
2023-01-01T13:50:19.335Z,15.85
2023-01-01T13:56:13.856Z,17.02
2023-01-01T14:01:53.173Z,18.45
2023-01-01T14:13:17.891Z,17.95
2023-01-01T14:18:46.380Z,17.83
2023-01-01T14:24:13.456Z,18.10
2023-01-01T14:29:37.590Z,18.88
2023-01-01T14:35:03.512Z,18.10
2023-01-01T14:40:29.249Z,20.83
2023-01-01T14:45:53.491Z,20.08
2023-01-01T14:51:22.204Z,20.60
2023-01-01T14:56:48.521Z,22.63
2023-01-01T15:02:16.514Z,20.25
2023-01-01T15:07:42.334Z,20.67
2023-01-01T15:13:07.713Z,20.15
2023-01-01T15:18:42.442Z,25.20
2023-01-01T15:24:14.822Z,25.65
2023-01-01T15:29:40.475Z,35.95
2023-01-01T15:35:06.588Z,20.98
2023-01-01T15:40:37.009Z,20.55
2023-01-01T15:46:12.945Z,19.85
2023-01-01T15:51:37.245Z,20.95
2023-01-01T15:57:02.550Z,49.75
2023-01-01T16:02:30.543Z,20.42
2023-01-01T16:08:02.033Z,26.45
2023-01-01T16:13:27.317Z,34.25
2023-01-01T16:18:51.443Z,23.25
2023-01-01T16:24:16.204Z,46.40
2023-01-01T16:29:43.613Z,35.13
2023-01-01T16:35:13.092Z,20.90
2023-01-01T16:40:38.239Z,21.30
2023-01-01T16:46:07.098Z,31.10
2023-01-01T16:51:34.705Z,21.40
2023-01-01T16:56:58.656Z,18.67
2023-01-01T17:02:23.963Z,20.15
2023-01-01T17:07:47.995Z,21.90
2023-01-01T17:13:11.935Z,17.70
2023-01-01T17:19:13.469Z,22.02
2023-01-01T17:24:21.929Z,19.60
2023-01-01T17:29:45.797Z,21.08
2023-01-01T17:35:11.555Z,19.25
2023-01-01T17:40:37.172Z,18.85
2023-01-01T17:46:04.640Z,19.25
2023-01-01T17:51:30.663Z,21.92
2023-01-01T17:56:54.637Z,22.17
2023-01-01T18:02:18.705Z,22.05
2023-01-01T18:07:45.785Z,20.35
2023-01-01T18:13:09.616Z,22.63
2023-01-01T18:18:36.637Z,23.23
2023-01-01T18:24:02.215Z,21.85
2023-01-01T18:29:26.170Z,30.17
2023-01-01T18:34:51.387Z,25.00
2023-01-01T18:40:18.517Z,23.17
2023-01-01T18:45:42.498Z,25.95
2023-01-01T18:51:15.804Z,25.40
2023-01-01T18:56:41.157Z,24.48
2023-01-01T19:02:15.993Z,25.48
2023-01-01T19:07:39.904Z,23.25
2023-01-01T19:13:15.575Z,26.15
2023-01-01T19:18:40.867Z,24.35
2023-01-01T19:24:15.625Z,25.67
2023-01-01T19:29:44.796Z,24.38
2023-01-01T19:35:14.738Z,25.67
2023-01-01T19:40:40.267Z,24.75
2023-01-01T19:46:06.006Z,24.58
2023-01-01T19:51:29.867Z,24.73
2023-01-01T19:56:53.696Z,23.10
2023-01-01T20:02:44.669Z,21.67
2023-01-01T20:08:03.175Z,20.50
2023-01-01T20:13:27.272Z,23.35
2023-01-01T20:18:52.518Z,24.13
2023-01-01T20:24:17.606Z,27.33
2023-01-01T20:29:41.829Z,24.98
2023-01-01T20:35:07.597Z,24.48
2023-01-01T20:40:31.442Z,24.85
2023-01-01T20:45:55.310Z,23.17
2023-01-01T20:51:20.709Z,25.42
2023-01-01T20:56:44.886Z,24.88
2023-01-01T21:02:11.128Z,23.92
2023-01-01T21:07:36.743Z,23.00
2023-01-01T21:13:00.559Z,22.75
2023-01-01T21:18:24.611Z,25.33
2023-01-01T21:23:53.618Z,23.15
2023-01-01T21:29:20.540Z,25.55
2023-01-01T21:34:45.433Z,23.27
2023-01-01T21:40:35.731Z,21.95
2023-01-01T21:46:13.405Z,22.58
2023-01-01T21:51:42.396Z,24.58
2023-01-01T21:57:16.053Z,23.45
2023-01-01T22:02:40.206Z,23.42
2023-01-01T22:08:23.480Z,24.13
2023-01-01T22:13:48.767Z,22.80
2023-01-01T22:19:16.038Z,22.48
2023-01-01T22:24:39.891Z,24.15
2023-01-01T22:30:38.684Z,27.13
2023-01-01T22:36:02.647Z,28.63
2023-01-01T22:41:26.580Z,25.63
2023-01-01T22:46:51.983Z,27.60
2023-01-01T22:52:15.841Z,25.77
2023-01-01T22:57:39.671Z,25.73
2023-01-01T23:03:05.217Z,24.90
2023-01-01T23:08:30.033Z,27.15
2023-01-01T23:14:11.348Z,30.40
2023-01-01T23:19:36.526Z,29.38
2023-01-01T23:25:00.348Z,26.92
2023-01-01T23:30:24.180Z,25.30
2023-01-01T23:35:50.009Z,25.75
2023-01-01T23:41:13.777Z,27.10
2023-01-01T23:46:38.960Z,26.52
2023-01-01T23:52:05.447Z,26.92
2023-01-01T23:57:29.250Z,27.70
